KHLG/HLG METAR and TAF weather

Enter ICAO airport designator
Station Type Date Time Source
KHLG METAR 2019/08/22 14:53 UTC NOAA

KHLG 221453Z VRB03KT 10SM FEW021 FEW034 SCT044 25/21 A3002 RMK AO2 SLP157 T02500206 51007


Station Type Date Time Source
KHLG Decoded METAR 2019/08/22 14:53 UTC NOAA

Station name not available
Aug 22, 2019 - 10:53 AM EDT / 2019.08.22 1453 UTC
Wind: Variable at 3 MPH (3 KT):0
Visibility: 10 mile(s):0
Sky conditions: partly cloudy
Temperature: 77.0 F (25.0 C)
Dew Point: 69.1 F (20.6 C)
Relative Humidity: 76%
Pressure (altimeter): 30.02 in. Hg (1016 hPa)
Pressure tendency: 0.02 inches (0.7 hPa) higher than three hours ago
ob: KHLG 221453Z VRB03KT 10SM FEW021 FEW034 SCT044 25/21 A3002 RMK AO2 SLP157 T02500206 51007
cycle: 15

Station Type Date Time Source
KHLG TAF 2019/08/22 12:39 UTC NOAA

TAF KHLG 221136Z 2212/2312 23006KT P6SM SCT080 BKN250
FM221700 28007KT P6SM VCTS BKN040CB
TEMPO 2218/2222 4SM TSRA BKN020CB
FM230000 35004KT P6SM VCSH BKN080
FM230700 02005KT P6SM BKN250

Example: see airport list